createdAt,value
2023-05-04T00:00:54.353Z,34.96
2023-05-04T00:01:54.360Z,34.97
2023-05-04T00:02:54.492Z,34.95
2023-05-04T00:03:54.465Z,34.89
2023-05-04T00:04:54.589Z,34.94
2023-05-04T00:05:54.474Z,34.93
2023-05-04T00:06:54.506Z,34.91
2023-05-04T00:07:54.519Z,34.90
2023-05-04T00:08:54.501Z,34.83
2023-05-04T00:09:54.638Z,34.84
2023-05-04T00:10:54.560Z,34.85
2023-05-04T00:11:54.578Z,34.85
2023-05-04T00:12:54.653Z,34.82
2023-05-04T00:13:54.668Z,34.85
2023-05-04T00:14:54.668Z,34.87
2023-05-04T00:15:54.729Z,34.89
2023-05-04T00:16:54.739Z,34.89
2023-05-04T00:17:54.813Z,34.94
2023-05-04T00:18:54.793Z,34.97
2023-05-04T00:19:54.821Z,34.98
2023-05-04T00:20:54.853Z,34.98
2023-05-04T00:21:54.920Z,35.00
2023-05-04T00:22:54.937Z,35.04
2023-05-04T00:23:54.952Z,35.05
2023-05-04T00:24:55.016Z,35.07
2023-05-04T00:25:54.996Z,35.08
2023-05-04T00:26:55.074Z,35.10
2023-05-04T00:27:55.090Z,35.10
2023-05-04T00:28:55.126Z,35.12
2023-05-04T00:29:55.138Z,35.12
2023-05-04T00:30:55.185Z,35.11
2023-05-04T00:31:55.313Z,35.13
2023-05-04T00:32:55.272Z,35.12
2023-05-04T00:33:55.280Z,35.12
2023-05-04T00:34:55.341Z,35.12
2023-05-04T00:35:55.334Z,35.12
2023-05-04T00:36:55.407Z,35.17
2023-05-04T00:37:55.420Z,35.13
2023-05-04T00:38:55.450Z,35.16
2023-05-04T00:39:55.477Z,35.20
2023-05-04T00:40:55.503Z,35.19
2023-05-04T00:41:55.693Z,35.19
2023-05-04T00:42:55.589Z,35.19
2023-05-04T00:43:55.606Z,35.25
2023-05-04T00:44:55.683Z,35.21
2023-05-04T00:45:55.706Z,35.21
2023-05-04T00:46:55.737Z,35.24
2023-05-04T00:47:55.789Z,35.21
2023-05-04T00:48:55.787Z,35.23
2023-05-04T00:49:55.789Z,35.25
2023-05-04T00:50:55.879Z,35.26
2023-05-04T00:51:55.869Z,35.25
2023-05-04T00:52:55.923Z,35.26
2023-05-04T00:53:55.976Z,35.26
2023-05-04T00:54:56.026Z,35.27
2023-05-04T00:55:56.033Z,35.29
2023-05-04T00:56:56.071Z,35.29
2023-05-04T00:57:56.135Z,35.28
2023-05-04T00:58:56.160Z,35.28
2023-05-04T00:59:56.214Z,35.28
2023-05-04T01:00:56.266Z,35.27
2023-05-04T01:01:56.284Z,35.27
2023-05-04T01:02:56.340Z,35.26
2023-05-04T01:03:56.370Z,35.24
2023-05-04T01:04:56.346Z,35.25
2023-05-04T01:05:56.390Z,35.23
2023-05-04T01:06:56.458Z,35.23
2023-05-04T01:07:56.513Z,35.17
2023-05-04T01:08:56.547Z,35.14
2023-05-04T01:09:56.596Z,35.11
2023-05-04T01:10:56.643Z,35.10
2023-05-04T01:11:56.674Z,34.99
2023-05-04T01:12:56.767Z,34.90
2023-05-04T01:13:56.761Z,34.82
2023-05-04T01:14:56.784Z,34.74
2023-05-04T01:15:56.813Z,34.75
2023-05-04T01:16:56.894Z,34.77
2023-05-04T01:17:56.984Z,34.75
2023-05-04T01:18:56.958Z,34.78
2023-05-04T01:19:57.015Z,34.81
2023-05-04T01:20:57.096Z,34.78
2023-05-04T01:21:57.110Z,34.80
2023-05-04T01:22:57.154Z,34.78
2023-05-04T01:23:57.182Z,34.77
2023-05-04T01:24:57.196Z,34.79
2023-05-04T01:25:57.262Z,34.75
2023-05-04T01:26:57.323Z,34.75
2023-05-04T01:27:57.338Z,34.66
2023-05-04T01:28:57.366Z,34.64
2023-05-04T01:29:57.423Z,34.69
2023-05-04T01:30:57.498Z,34.59
2023-05-04T01:31:57.476Z,34.59
2023-05-04T01:32:57.600Z,34.59
2023-05-04T01:33:57.575Z,34.57
2023-05-04T01:34:57.640Z,34.55
2023-05-04T01:35:57.642Z,34.57
2023-05-04T01:36:57.704Z,34.58
2023-05-04T01:37:57.723Z,34.54
2023-05-04T01:38:57.792Z,34.55
2023-05-04T01:39:57.856Z,34.60
2023-05-04T01:40:57.837Z,34.56
2023-05-04T01:41:57.918Z,34.56
2023-05-04T01:42:57.961Z,34.52
2023-05-04T01:43:57.983Z,34.50
2023-05-04T01:44:58.035Z,34.44
2023-05-04T01:45:58.088Z,34.48
2023-05-04T01:46:58.117Z,34.49
2023-05-04T01:47:58.175Z,34.47
2023-05-04T01:48:58.189Z,34.46
2023-05-04T01:49:58.249Z,34.46
2023-05-04T01:50:58.326Z,34.41
2023-05-04T01:51:58.376Z,34.42
2023-05-04T01:52:58.393Z,34.42
2023-05-04T01:53:58.432Z,34.39
2023-05-04T01:54:58.528Z,34.44
2023-05-04T01:55:58.548Z,34.39
2023-05-04T01:56:58.585Z,34.41
2023-05-04T01:57:58.631Z,34.45
2023-05-04T01:58:58.631Z,34.51
2023-05-04T01:59:58.711Z,34.55
2023-05-04T02:00:58.766Z,34.54
2023-05-04T02:01:59.025Z,34.59
2023-05-04T02:02:58.906Z,34.59
2023-05-04T02:03:59.006Z,34.60
2023-05-04T02:04:58.953Z,34.65
2023-05-04T02:05:58.995Z,34.68
2023-05-04T02:06:59.077Z,34.69
2023-05-04T02:07:59.128Z,34.69
2023-05-04T02:08:59.129Z,34.72
2023-05-04T02:09:59.218Z,34.71
2023-05-04T02:10:59.257Z,34.71
2023-05-04T02:11:59.329Z,34.74
2023-05-04T02:12:59.406Z,34.73
2023-05-04T02:13:59.446Z,34.75
2023-05-04T02:14:59.474Z,34.72
2023-05-04T02:15:59.556Z,34.72
2023-05-04T02:16:59.554Z,34.72
2023-05-04T02:17:59.772Z,34.72
2023-05-04T02:18:59.674Z,34.75
2023-05-04T02:19:59.747Z,34.74
2023-05-04T02:20:59.771Z,34.71
2023-05-04T02:21:59.865Z,34.72
2023-05-04T02:22:59.903Z,34.74
2023-05-04T02:23:59.949Z,34.72
2023-05-04T02:25:00.001Z,34.72
2023-05-04T02:26:00.050Z,34.69
2023-05-04T02:27:00.159Z,34.68
2023-05-04T02:28:00.176Z,34.66
2023-05-04T02:29:00.232Z,34.65
2023-05-04T02:30:00.254Z,34.67
2023-05-04T02:31:00.352Z,34.68
2023-05-04T02:32:00.408Z,34.68
2023-05-04T02:33:00.484Z,34.65
2023-05-04T02:34:00.466Z,34.65
2023-05-04T02:35:00.525Z,34.64
2023-05-04T02:36:00.599Z,34.68
2023-05-04T02:37:00.635Z,34.69
2023-05-04T02:38:00.671Z,34.72
2023-05-04T02:39:00.709Z,34.71
2023-05-04T02:40:00.810Z,34.72
2023-05-04T02:41:00.822Z,34.73
2023-05-04T02:42:00.878Z,34.74
2023-05-04T02:43:01.470Z,34.74
2023-05-04T02:44:01.006Z,34.76
2023-05-04T02:45:01.067Z,34.76
2023-05-04T02:46:01.076Z,34.75
2023-05-04T02:47:01.155Z,34.74
2023-05-04T02:48:01.276Z,34.75
2023-05-04T02:49:01.252Z,34.75
2023-05-04T02:50:01.446Z,34.75
2023-05-04T02:51:01.362Z,34.73
2023-05-04T02:52:01.457Z,34.70
2023-05-04T02:53:01.488Z,34.72
2023-05-04T02:54:01.582Z,34.72
2023-05-04T02:55:01.591Z,34.74
2023-05-04T02:56:01.676Z,34.75
2023-05-04T02:57:01.753Z,34.76
2023-05-04T02:58:01.842Z,34.78
2023-05-04T02:59:01.820Z,34.79
2023-05-04T03:00:01.942Z,34.80
2023-05-04T03:01:01.941Z,34.80
2023-05-04T03:02:01.904Z,34.82
2023-05-04T03:03:02.038Z,34.80
2023-05-04T03:04:02.054Z,34.81
2023-05-04T03:05:02.043Z,34.82
2023-05-04T03:06:02.202Z,34.83
2023-05-04T03:07:02.102Z,34.83
2023-05-04T03:08:02.189Z,34.83
2023-05-04T03:09:02.223Z,34.85
2023-05-04T03:10:02.290Z,34.85
2023-05-04T03:11:02.289Z,34.87
2023-05-04T03:12:02.325Z,34.84
2023-05-04T03:13:02.419Z,34.87
2023-05-04T03:14:02.389Z,34.86
2023-05-04T03:15:02.425Z,34.84
2023-05-04T03:16:02.562Z,34.84
2023-05-04T03:17:02.556Z,34.83
2023-05-04T03:18:02.630Z,34.87
2023-05-04T03:19:02.610Z,34.82
2023-05-04T03:20:02.819Z,34.82
2023-05-04T03:21:02.668Z,34.80
2023-05-04T03:22:02.709Z,34.82
2023-05-04T03:23:02.793Z,34.82
2023-05-04T03:24:02.811Z,34.80
2023-05-04T03:25:02.829Z,34.81
2023-05-04T03:26:02.889Z,34.84
2023-05-04T03:27:02.901Z,34.82
2023-05-04T03:28:02.903Z,34.86
2023-05-04T03:29:02.960Z,34.84
2023-05-04T03:30:03.314Z,34.84
2023-05-04T03:31:03.039Z,34.83
2023-05-04T03:32:03.106Z,34.85
2023-05-04T03:33:03.189Z,34.85
2023-05-04T03:34:03.122Z,34.86
2023-05-04T03:35:04.115Z,34.86
2023-05-04T03:36:03.195Z,34.83
2023-05-04T03:37:03.236Z,34.84
2023-05-04T03:38:03.288Z,34.83
2023-05-04T03:39:03.291Z,34.83
2023-05-04T03:40:03.564Z,34.81
2023-05-04T03:41:03.346Z,34.82
2023-05-04T03:42:03.413Z,34.82
2023-05-04T03:43:03.427Z,34.81
2023-05-04T03:44:03.427Z,34.80
2023-05-04T03:45:04.343Z,34.79
2023-05-04T03:46:03.600Z,34.78
2023-05-04T03:47:03.530Z,34.80
2023-05-04T03:48:03.621Z,34.78
2023-05-04T03:49:03.595Z,34.79
2023-05-04T03:50:03.706Z,34.77
2023-05-04T03:51:03.680Z,34.75
2023-05-04T03:52:03.664Z,34.75
2023-05-04T03:53:03.694Z,34.75
2023-05-04T03:54:03.705Z,34.74
2023-05-04T03:55:03.742Z,34.73
2023-05-04T03:56:03.751Z,34.68
2023-05-04T03:57:03.780Z,34.70
2023-05-04T03:58:03.818Z,34.71
2023-05-04T03:59:03.791Z,34.72
2023-05-04T04:00:03.960Z,34.70
2023-05-04T04:01:03.807Z,34.68
2023-05-04T04:02:03.863Z,34.70
2023-05-04T04:03:03.989Z,34.73
2023-05-04T04:04:04.065Z,34.70
2023-05-04T04:05:03.907Z,34.73
2023-05-04T04:06:03.895Z,34.73
2023-05-04T04:07:03.884Z,34.73
2023-05-04T04:08:03.870Z,34.70
2023-05-04T04:09:03.911Z,34.71
2023-05-04T04:10:04.217Z,34.71
2023-05-04T04:11:03.889Z,34.69
2023-05-04T04:12:03.928Z,34.69
2023-05-04T04:13:04.036Z,34.70
2023-05-04T04:14:03.899Z,34.70
2023-05-04T04:15:03.906Z,34.71
2023-05-04T04:16:03.952Z,34.69
2023-05-04T04:17:03.960Z,34.70
2023-05-04T04:18:04.017Z,34.69
2023-05-04T04:19:03.955Z,34.68
2023-05-04T04:20:04.088Z,34.69
2023-05-04T04:21:03.952Z,34.71
2023-05-04T04:22:03.976Z,34.69
2023-05-04T04:23:04.003Z,34.66
2023-05-04T04:24:03.970Z,34.67
2023-05-04T04:25:04.011Z,34.69
2023-05-04T04:26:04.022Z,34.69
2023-05-04T04:27:04.007Z,34.68
2023-05-04T04:28:04.009Z,34.67
2023-05-04T04:29:03.995Z,34.65
2023-05-04T04:30:04.439Z,34.66
2023-05-04T04:31:04.119Z,34.65
2023-05-04T04:32:04.058Z,34.64
2023-05-04T04:33:04.101Z,34.64
2023-05-04T04:34:04.055Z,34.61
2023-05-04T04:35:04.098Z,34.61
2023-05-04T04:36:04.111Z,34.62
2023-05-04T04:37:04.122Z,34.64
2023-05-04T04:38:04.226Z,34.65
2023-05-04T04:39:04.126Z,34.65
2023-05-04T04:40:04.435Z,34.66
2023-05-04T04:41:04.113Z,34.66
2023-05-04T04:42:04.267Z,34.65
2023-05-04T04:43:04.119Z,34.62
2023-05-04T04:44:04.150Z,34.64
2023-05-04T04:45:04.144Z,34.63
2023-05-04T04:46:04.152Z,34.64
2023-05-04T04:47:04.232Z,34.64
2023-05-04T04:48:04.208Z,34.63
2023-05-04T04:49:04.214Z,34.56
2023-05-04T04:50:04.333Z,34.53
2023-05-04T04:51:04.222Z,34.56
2023-05-04T04:52:04.237Z,34.57
2023-05-04T04:53:04.228Z,34.59
2023-05-04T04:54:04.262Z,34.64
2023-05-04T04:55:04.277Z,34.64
2023-05-04T04:56:04.291Z,34.62
2023-05-04T04:57:04.297Z,34.65
2023-05-04T04:58:04.327Z,34.66
2023-05-04T04:59:04.332Z,34.67
2023-05-04T05:00:04.708Z,34.68
2023-05-04T05:01:04.424Z,34.67
2023-05-04T05:02:04.379Z,34.69
2023-05-04T05:03:04.508Z,34.69
2023-05-04T05:04:04.402Z,34.69
2023-05-04T05:05:04.493Z,34.72
2023-05-04T05:06:04.411Z,34.70
2023-05-04T05:07:04.451Z,34.72
2023-05-04T05:08:04.472Z,34.72
2023-05-04T05:09:04.456Z,34.72
2023-05-04T05:10:04.813Z,34.74
2023-05-04T05:11:04.481Z,34.73
2023-05-04T05:12:04.549Z,34.73
2023-05-04T05:13:04.515Z,34.73
2023-05-04T05:14:04.570Z,34.73
2023-05-04T05:15:04.603Z,34.73
2023-05-04T05:16:04.544Z,34.72
2023-05-04T05:17:04.702Z,34.70
2023-05-04T05:18:04.610Z,34.71
2023-05-04T05:19:04.606Z,34.67
2023-05-04T05:20:05.077Z,34.71
2023-05-04T05:21:04.603Z,34.70
2023-05-04T05:22:04.649Z,34.69
2023-05-04T05:23:04.637Z,34.68
2023-05-04T05:24:04.645Z,34.67
2023-05-04T05:25:04.632Z,34.71
2023-05-04T05:26:04.649Z,34.66
2023-05-04T05:27:04.685Z,34.67
2023-05-04T05:28:04.668Z,34.69
2023-05-04T05:29:04.699Z,34.72
2023-05-04T05:30:04.880Z,34.74
2023-05-04T05:31:04.821Z,34.73
2023-05-04T05:32:04.737Z,34.71
2023-05-04T05:33:04.800Z,34.68
2023-05-04T05:34:04.751Z,34.73
2023-05-04T05:35:04.764Z,34.82
2023-05-04T05:36:04.760Z,34.80
2023-05-04T05:37:04.763Z,34.82
2023-05-04T05:38:04.767Z,34.82
2023-05-04T05:39:04.822Z,34.82
2023-05-04T05:40:04.954Z,34.77
2023-05-04T05:41:04.788Z,34.81
2023-05-04T05:42:05.079Z,34.82
2023-05-04T05:43:04.793Z,34.87
2023-05-04T05:44:04.793Z,34.82
2023-05-04T05:45:04.840Z,35.74
2023-05-04T05:46:04.904Z,36.01
2023-05-04T05:47:04.815Z,35.72
2023-05-04T05:48:05.080Z,35.76
2023-05-04T05:49:04.856Z,35.63
2023-05-04T05:50:05.118Z,36.03
2023-05-04T05:51:04.925Z,37.30
2023-05-04T05:52:04.948Z,36.42
2023-05-04T05:53:05.053Z,39.41
2023-05-04T05:54:04.986Z,40.24
2023-05-04T05:55:04.970Z,38.93
2023-05-04T05:56:05.021Z,39.09
2023-05-04T05:57:05.073Z,38.12
2023-05-04T05:58:05.132Z,37.75
2023-05-04T05:59:05.200Z,37.17
2023-05-04T06:00:05.424Z,37.13
2023-05-04T06:01:05.302Z,37.14
2023-05-04T06:02:05.293Z,37.30
2023-05-04T06:03:06.177Z,37.87
2023-05-04T06:04:05.537Z,37.87
2023-05-04T06:05:05.607Z,37.62
2023-05-04T06:06:05.366Z,37.69
2023-05-04T06:07:05.404Z,37.37
2023-05-04T06:08:05.396Z,37.36
2023-05-04T06:09:05.387Z,37.43
2023-05-04T06:10:05.658Z,37.44
2023-05-04T06:11:05.416Z,37.44
2023-05-04T06:12:05.426Z,37.50
2023-05-04T06:13:05.529Z,37.44
2023-05-04T06:14:05.438Z,37.57
2023-05-04T06:15:05.472Z,37.68
2023-05-04T06:16:05.558Z,37.67
2023-05-04T06:17:05.513Z,37.65
2023-05-04T06:18:05.679Z,37.69
2023-05-04T06:19:05.556Z,38.14
2023-05-04T06:20:05.873Z,38.62
2023-05-04T06:21:05.642Z,38.62
2023-05-04T06:22:05.740Z,38.25
2023-05-04T06:23:05.713Z,38.54
2023-05-04T06:24:05.754Z,38.83
2023-05-04T06:25:07.930Z,38.38
2023-05-04T06:26:05.890Z,38.35
2023-05-04T06:27:05.898Z,38.30
2023-05-04T06:28:05.936Z,38.47
2023-05-04T06:29:05.968Z,38.83
2023-05-04T06:30:06.240Z,38.57
2023-05-04T06:31:06.050Z,38.47
2023-05-04T06:32:06.192Z,38.51
2023-05-04T06:33:06.192Z,38.70
2023-05-04T06:34:06.200Z,38.40
2023-05-04T06:35:06.191Z,38.46
2023-05-04T06:36:06.251Z,38.43
2023-05-04T06:37:06.277Z,38.48
2023-05-04T06:38:06.336Z,38.89
2023-05-04T06:39:06.341Z,39.02
2023-05-04T06:40:06.395Z,38.99
2023-05-04T06:41:06.367Z,38.90
2023-05-04T06:42:06.400Z,39.13
2023-05-04T06:43:06.437Z,39.14
2023-05-04T06:44:06.495Z,38.97
2023-05-04T06:45:06.494Z,39.43
2023-05-04T06:46:06.511Z,39.76
2023-05-04T06:47:06.564Z,39.82
2023-05-04T06:48:06.633Z,39.90
2023-05-04T06:49:06.556Z,40.52
2023-05-04T06:50:06.748Z,40.42
2023-05-04T06:51:06.607Z,40.05
2023-05-04T06:52:06.609Z,39.66
2023-05-04T06:53:06.620Z,41.50
2023-05-04T06:54:06.664Z,40.32
2023-05-04T06:55:06.669Z,40.23
2023-05-04T06:56:06.707Z,40.22
2023-05-04T06:57:06.734Z,40.34
2023-05-04T06:58:06.798Z,40.26
2023-05-04T06:59:06.842Z,40.22
2023-05-04T07:00:06.980Z,40.35
2023-05-04T07:01:07.025Z,40.67
2023-05-04T07:02:07.025Z,40.68
2023-05-04T07:03:07.082Z,41.08
2023-05-04T07:04:07.204Z,40.82
2023-05-04T07:05:07.175Z,40.81
2023-05-04T07:06:07.221Z,40.84
2023-05-04T07:07:07.291Z,41.05
2023-05-04T07:08:07.560Z,40.93
2023-05-04T07:09:07.345Z,41.15
2023-05-04T07:10:07.371Z,41.12
2023-05-04T07:11:07.418Z,41.28
2023-05-04T07:12:07.443Z,41.53
2023-05-04T07:13:07.512Z,42.29
2023-05-04T07:14:09.131Z,42.01
2023-05-04T07:15:07.566Z,42.03
2023-05-04T07:16:07.504Z,42.24
2023-05-04T07:17:07.502Z,42.60
2023-05-04T07:18:07.536Z,42.26
2023-05-04T07:19:07.466Z,42.67
2023-05-04T07:20:07.881Z,42.70
2023-05-04T07:21:22.548Z,42.55
2023-05-04T07:22:08.527Z,42.47
2023-05-04T07:23:07.470Z,42.51
2023-05-04T07:24:07.452Z,43.03
2023-05-04T07:25:07.478Z,43.16
2023-05-04T07:26:07.446Z,42.69
2023-05-04T07:27:07.445Z,43.47
2023-05-04T07:28:07.438Z,43.03
2023-05-04T07:29:07.422Z,43.93
2023-05-04T07:30:07.470Z,43.09
2023-05-04T07:31:07.396Z,42.91
2023-05-04T07:32:07.423Z,42.63
2023-05-04T07:33:07.417Z,42.32
2023-05-04T07:34:07.409Z,42.68
2023-05-04T07:35:07.352Z,42.54
2023-05-04T07:36:07.487Z,42.67
2023-05-04T07:37:07.392Z,43.63
2023-05-04T07:38:07.829Z,43.31
2023-05-04T07:39:07.357Z,44.58
2023-05-04T07:40:07.591Z,43.39
2023-05-04T07:41:07.391Z,43.80
2023-05-04T07:42:07.466Z,44.10
2023-05-04T07:43:07.596Z,43.94
2023-05-04T07:44:07.305Z,43.78
2023-05-04T07:45:07.312Z,43.80
2023-05-04T07:46:08.437Z,43.86
2023-05-04T07:47:07.336Z,43.86
2023-05-04T07:48:07.658Z,41.71
2023-05-04T07:49:07.367Z,39.25
2023-05-04T07:50:07.516Z,37.88
2023-05-04T07:51:07.435Z,36.66
2023-05-04T07:52:07.491Z,35.72
2023-05-04T07:53:07.494Z,36.01
2023-05-04T07:54:07.494Z,35.65
2023-05-04T07:55:07.920Z,35.54
2023-05-04T07:56:07.589Z,34.73
2023-05-04T07:57:07.655Z,34.85
2023-05-04T07:58:07.672Z,35.66
2023-05-04T07:59:07.694Z,36.14
2023-05-04T08:00:07.907Z,36.82
2023-05-04T08:01:07.729Z,37.11
2023-05-04T08:02:07.822Z,36.85
2023-05-04T08:03:07.854Z,36.79
2023-05-04T08:04:07.811Z,36.86
2023-05-04T08:05:07.858Z,36.88
2023-05-04T08:06:07.901Z,37.26
2023-05-04T08:07:07.919Z,37.31
2023-05-04T08:08:07.921Z,38.54
2023-05-04T08:09:08.110Z,37.86
2023-05-04T08:10:07.950Z,37.87
2023-05-04T08:11:19.139Z,38.18
2023-05-04T08:12:09.055Z,38.22
2023-05-04T08:13:08.169Z,38.32
2023-05-04T08:14:08.027Z,38.29
2023-05-04T08:15:08.055Z,38.58
2023-05-04T08:16:08.008Z,38.58
2023-05-04T08:17:08.015Z,39.08
2023-05-04T08:18:08.028Z,39.17
2023-05-04T08:19:07.970Z,39.10
2023-05-04T08:20:07.978Z,39.14
2023-05-04T08:21:07.985Z,39.33
2023-05-04T08:22:07.948Z,39.92
2023-05-04T08:23:07.951Z,39.64
2023-05-04T08:24:07.925Z,39.68
2023-05-04T08:25:08.199Z,39.74
2023-05-04T08:26:07.936Z,39.97
2023-05-04T08:27:09.326Z,39.99
2023-05-04T08:28:07.908Z,40.22
2023-05-04T08:29:07.926Z,40.03
2023-05-04T08:30:07.949Z,40.09
2023-05-04T08:31:07.989Z,40.25
2023-05-04T08:32:08.143Z,40.23
2023-05-04T08:33:08.088Z,40.32
2023-05-04T08:34:08.094Z,40.73
2023-05-04T08:35:08.130Z,41.21
2023-05-04T08:36:08.101Z,40.30
2023-05-04T08:37:08.136Z,40.67
2023-05-04T08:38:08.099Z,40.72
2023-05-04T08:39:08.133Z,40.65
2023-05-04T08:40:08.141Z,40.58
2023-05-04T08:41:08.143Z,40.52
2023-05-04T08:42:08.242Z,40.71
2023-05-04T08:43:08.165Z,41.00
2023-05-04T08:44:08.185Z,40.93
2023-05-04T08:45:08.153Z,41.29
2023-05-04T08:46:08.236Z,42.08
2023-05-04T08:47:08.200Z,41.87
2023-05-04T08:48:08.317Z,42.22
2023-05-04T08:49:08.200Z,41.71
2023-05-04T08:50:08.244Z,41.74
2023-05-04T08:51:08.265Z,41.95
2023-05-04T08:52:08.299Z,41.72
2023-05-04T08:53:08.330Z,42.39
2023-05-04T08:54:08.346Z,42.15
2023-05-04T08:55:08.380Z,43.79
2023-05-04T08:56:08.396Z,42.85
2023-05-04T08:57:08.466Z,42.30
2023-05-04T08:58:08.498Z,42.79
2023-05-04T08:59:08.489Z,42.14
2023-05-04T09:00:08.494Z,42.16
2023-05-04T09:01:08.726Z,42.43
2023-05-04T09:02:08.599Z,42.39
2023-05-04T09:03:08.746Z,42.43
2023-05-04T09:04:08.673Z,42.46
2023-05-04T09:05:08.722Z,42.47
2023-05-04T09:06:08.755Z,42.79
2023-05-04T09:07:08.851Z,42.97
2023-05-04T09:08:08.872Z,42.89
2023-05-04T09:09:08.941Z,43.08
2023-05-04T09:10:08.957Z,43.07
2023-05-04T09:11:09.025Z,43.31
2023-05-04T09:12:09.022Z,43.15
2023-05-04T09:13:09.139Z,43.25
2023-05-04T09:14:09.169Z,43.89
2023-05-04T09:15:09.214Z,43.48
2023-05-04T09:16:09.227Z,43.96
2023-05-04T09:17:09.343Z,43.56
2023-05-04T09:18:09.317Z,43.66
2023-05-04T09:19:09.327Z,43.65
2023-05-04T09:20:09.365Z,43.71
2023-05-04T09:21:09.421Z,43.69
2023-05-04T09:22:09.479Z,43.62
2023-05-04T09:23:09.496Z,43.75
2023-05-04T09:24:09.488Z,44.06
2023-05-04T09:25:09.488Z,43.97
2023-05-04T09:26:09.512Z,45.55
2023-05-04T09:27:09.547Z,44.46
2023-05-04T09:28:09.567Z,44.88
2023-05-04T09:29:09.564Z,44.71
2023-05-04T09:30:09.683Z,44.86
2023-05-04T09:31:09.685Z,45.17
2023-05-04T09:32:09.632Z,44.55
2023-05-04T09:33:09.659Z,44.88
2023-05-04T09:34:09.685Z,45.54
2023-05-04T09:35:10.848Z,45.21
2023-05-04T09:36:09.678Z,45.50
2023-05-04T09:37:09.691Z,45.48
2023-05-04T09:38:10.141Z,45.99
2023-05-04T09:39:11.273Z,45.80
2023-05-04T09:40:09.684Z,45.78
2023-05-04T09:41:09.674Z,45.02
2023-05-04T09:42:09.653Z,45.12
2023-05-04T09:43:10.207Z,44.86
2023-05-04T09:44:09.642Z,44.84
2023-05-04T09:45:09.663Z,44.89
2023-05-04T09:46:09.680Z,44.91
2023-05-04T09:47:09.608Z,45.01
2023-05-04T09:48:09.635Z,45.03
2023-05-04T09:49:09.593Z,44.75
2023-05-04T09:50:09.562Z,44.30
2023-05-04T09:51:09.597Z,42.98
2023-05-04T09:52:09.588Z,41.63
2023-05-04T09:53:09.666Z,39.53
2023-05-04T09:54:09.562Z,38.86
2023-05-04T09:55:09.567Z,38.47
2023-05-04T09:56:09.545Z,37.81
2023-05-04T09:57:09.558Z,37.70
2023-05-04T09:58:09.603Z,37.19
2023-05-04T09:59:09.615Z,36.85
2023-05-04T10:00:09.654Z,37.07
2023-05-04T10:01:09.694Z,37.17
2023-05-04T10:02:21.278Z,36.75
2023-05-04T10:03:10.795Z,36.99
2023-05-04T10:04:09.735Z,37.15
2023-05-04T10:05:09.780Z,36.65
2023-05-04T10:06:09.694Z,36.50
2023-05-04T10:07:09.718Z,36.28
2023-05-04T10:08:09.726Z,36.39
2023-05-04T10:09:09.681Z,36.25
2023-05-04T10:10:09.646Z,36.28
2023-05-04T10:11:09.661Z,36.02
2023-05-04T10:12:09.703Z,35.90
2023-05-04T10:13:09.797Z,35.64
2023-05-04T10:14:09.770Z,35.60
2023-05-04T10:15:09.784Z,35.57
2023-05-04T10:16:09.826Z,35.56
2023-05-04T10:17:10.976Z,35.38
2023-05-04T10:18:10.075Z,35.61
2023-05-04T10:19:10.079Z,35.36
2023-05-04T10:20:10.087Z,35.36
2023-05-04T10:21:10.062Z,35.06
2023-05-04T10:22:10.077Z,34.69
2023-05-04T10:23:10.126Z,34.79
2023-05-04T10:24:10.139Z,34.90
2023-05-04T10:25:10.139Z,34.85
2023-05-04T10:26:10.168Z,34.76
2023-05-04T10:27:10.176Z,34.56
2023-05-04T10:28:10.154Z,34.28
2023-05-04T10:29:10.179Z,34.06
2023-05-04T10:30:10.172Z,33.78
2023-05-04T10:31:10.245Z,34.03
2023-05-04T10:32:10.210Z,34.13
2023-05-04T10:33:10.306Z,34.01
2023-05-04T10:34:10.229Z,34.00
2023-05-04T10:35:10.252Z,33.93
2023-05-04T10:36:10.258Z,34.22
2023-05-04T10:37:10.249Z,35.06
2023-05-04T10:38:10.289Z,36.25
2023-05-04T10:39:10.286Z,36.84
2023-05-04T10:40:10.351Z,37.19
2023-05-04T10:41:10.395Z,37.90
2023-05-04T10:42:10.410Z,37.15
2023-05-04T10:43:10.454Z,37.85
2023-05-04T10:44:10.478Z,37.49
2023-05-04T10:45:10.498Z,36.94
2023-05-04T10:46:10.637Z,37.01
2023-05-04T10:47:10.554Z,36.97
2023-05-04T10:48:10.675Z,36.82
2023-05-04T10:49:10.590Z,36.82
2023-05-04T10:50:10.595Z,36.72
2023-05-04T10:51:10.598Z,36.78
2023-05-04T10:52:10.619Z,36.71
2023-05-04T10:53:10.649Z,36.35
2023-05-04T10:54:10.631Z,36.15
2023-05-04T10:55:10.657Z,36.10
2023-05-04T10:56:10.683Z,35.76
2023-05-04T10:57:10.682Z,35.68
2023-05-04T10:58:10.721Z,35.84
2023-05-04T10:59:10.712Z,36.71
2023-05-04T11:00:10.675Z,37.12
2023-05-04T11:01:10.751Z,35.77
2023-05-04T11:02:10.765Z,35.60
2023-05-04T11:03:10.813Z,36.00
2023-05-04T11:04:10.812Z,35.77
2023-05-04T11:05:10.823Z,35.58
2023-05-04T11:06:11.089Z,35.40
2023-05-04T11:07:10.863Z,35.71
2023-05-04T11:08:10.888Z,35.81
2023-05-04T11:09:10.947Z,35.63
2023-05-04T11:10:10.915Z,35.55
2023-05-04T11:11:10.960Z,35.72
2023-05-04T11:12:11.039Z,35.78
2023-05-04T11:13:11.041Z,35.59
2023-05-04T11:14:11.047Z,35.47
2023-05-04T11:15:11.031Z,35.51
2023-05-04T11:16:11.063Z,35.35
2023-05-04T11:17:26.681Z,35.51
2023-05-04T11:18:12.111Z,35.02
2023-05-04T11:19:11.041Z,35.25
2023-05-04T11:20:11.052Z,35.27
2023-05-04T11:21:11.023Z,35.14
2023-05-04T11:22:11.016Z,35.02
2023-05-04T11:23:11.049Z,34.55
2023-05-04T11:24:10.998Z,34.81
2023-05-04T11:25:11.010Z,34.85
2023-05-04T11:26:11.005Z,34.72
2023-05-04T11:27:11.019Z,34.27
2023-05-04T11:28:11.027Z,34.74
2023-05-04T11:29:11.155Z,34.73
2023-05-04T11:30:11.032Z,34.89
2023-05-04T11:31:11.202Z,34.97
2023-05-04T11:32:11.107Z,35.98
2023-05-04T11:33:10.942Z,36.12
2023-05-04T11:34:11.169Z,35.92
2023-05-04T11:35:10.950Z,35.88
2023-05-04T11:36:10.974Z,35.90
2023-05-04T11:37:10.926Z,35.82
2023-05-04T11:38:10.972Z,35.80
2023-05-04T11:39:10.914Z,35.88
2023-05-04T11:40:10.924Z,35.40
2023-05-04T11:41:10.893Z,35.06
2023-05-04T11:42:10.907Z,33.91
2023-05-04T11:43:10.921Z,34.28
2023-05-04T11:44:10.895Z,34.34
2023-05-04T11:45:10.857Z,34.76
2023-05-04T11:46:10.887Z,34.74
2023-05-04T11:47:10.892Z,34.36
2023-05-04T11:48:11.043Z,33.80
2023-05-04T11:49:10.852Z,34.34
2023-05-04T11:50:10.837Z,34.03
2023-05-04T11:51:10.845Z,34.10
2023-05-04T11:52:10.867Z,34.11
2023-05-04T11:53:10.867Z,33.78
2023-05-04T11:54:10.946Z,33.72
2023-05-04T11:55:10.802Z,33.57
2023-05-04T11:56:10.880Z,33.79
2023-05-04T11:57:10.802Z,33.82
2023-05-04T11:58:10.794Z,33.92
2023-05-04T11:59:10.766Z,34.15
2023-05-04T12:00:10.753Z,34.25
2023-05-04T12:01:10.754Z,34.29
2023-05-04T12:02:10.834Z,34.31
2023-05-04T12:03:10.795Z,34.37
2023-05-04T12:04:10.867Z,34.47
2023-05-04T12:05:10.806Z,34.54
2023-05-04T12:06:10.747Z,34.65
2023-05-04T12:07:10.722Z,34.69
2023-05-04T12:08:10.747Z,34.68
2023-05-04T12:09:10.704Z,34.58
2023-05-04T12:10:10.706Z,34.44
2023-05-04T12:11:10.700Z,34.45
2023-05-04T12:12:10.679Z,34.27
2023-05-04T12:13:10.760Z,33.64
2023-05-04T12:14:11.177Z,32.54
2023-05-04T12:15:10.729Z,32.81
2023-05-04T12:16:10.736Z,32.97
2023-05-04T12:17:10.677Z,33.17
2023-05-04T12:18:10.702Z,33.28
2023-05-04T12:19:10.631Z,33.19
2023-05-04T12:20:10.628Z,33.09
2023-05-04T12:21:10.650Z,33.19
2023-05-04T12:22:10.635Z,33.12
2023-05-04T12:23:10.654Z,33.04
2023-05-04T12:24:11.188Z,31.85
2023-05-04T12:25:10.696Z,31.50
2023-05-04T12:26:11.677Z,31.61
2023-05-04T12:27:10.756Z,31.79
2023-05-04T12:28:10.793Z,32.08
2023-05-04T12:29:10.805Z,32.09
2023-05-04T12:30:10.865Z,32.17
2023-05-04T12:31:10.878Z,32.32
2023-05-04T12:32:10.902Z,32.41
2023-05-04T12:33:10.976Z,32.49
2023-05-04T12:34:10.905Z,32.49
2023-05-04T12:35:10.959Z,32.71
2023-05-04T12:36:10.957Z,32.70
2023-05-04T12:37:10.990Z,32.77
2023-05-04T12:38:11.028Z,32.91
2023-05-04T12:39:11.083Z,33.01
2023-05-04T12:40:20.881Z,33.02
2023-05-04T12:41:12.094Z,33.00
2023-05-04T12:42:11.072Z,33.01
2023-05-04T12:43:11.063Z,33.04
2023-05-04T12:44:11.067Z,33.05
2023-05-04T12:45:11.045Z,33.07
2023-05-04T12:46:11.023Z,33.07
2023-05-04T12:47:11.019Z,33.13
2023-05-04T12:48:11.018Z,33.15
2023-05-04T12:49:11.014Z,33.14
2023-05-04T12:50:11.081Z,33.16
2023-05-04T12:51:11.021Z,33.27
2023-05-04T12:52:11.037Z,33.33
2023-05-04T12:53:10.996Z,33.36